Time;durP1;ratioP1;P1;durP2;ratioP2;P2;SDS_P1;SDS_P2;PMS_P1;PMS_P2;Temp;Humidity;BMP_temperature;BMP_pressure;BME280_temperature;BME280_humidity;BME280_pressure;Samples;Min_cycle;Max_cycle;Signal;HPM_P1;HPM_P2
2022/08/07 00:00:24;;;;;;;;;;;;;;;23.29;50.91;100055.25;4407804;32;33522;-85
2022/08/07 00:02:52;;;;;;;;;;;;;;;23.09;51.54;100055.25;4401969;32;32563;-84
2022/08/07 00:05:20;;;;;;;;;;;;;;;23.25;51.20;100055.50;4410458;32;33456;-84
2022/08/07 00:07:50;;;;;;;;;;;;;;;23.62;50.33;100057.47;4432660;32;34063;-84
2022/08/07 00:10:28;;;;;;;;;;;;;;;23.50;50.67;100058.66;4430128;32;33323;-84
2022/08/07 00:12:59;;;;;;;;;;;;;;;23.56;50.40;100052.66;4411014;32;34560;-84
2022/08/07 00:15:30;;;;;;;;;;;;;;;23.32;51.26;100058.50;4429619;32;33979;-84
2022/08/07 00:18:04;;;;;;;;;;;;;;;23.51;50.51;100052.25;4409289;32;32472;-84
2022/08/07 00:20:31;;;;;;;;;;;;;;;23.34;50.96;100045.72;4420951;32;33681;-84
2022/08/07 00:23:01;;;;;;;;;;;;;;;23.38;50.96;100049.00;4417778;32;34196;-84
2022/08/07 00:25:34;;;;;;;;;;;;;;;23.46;50.66;100041.06;4436898;32;34725;-84
2022/08/07 00:28:08;;;;;;;;;;;;;;;23.66;50.16;100047.28;4421309;32;95075;-84
2022/08/07 00:30:37;;;;;;;;;;;;;;;23.57;50.37;100048.97;4437178;32;32544;-84
2022/08/07 00:33:07;;;;;;;;;;;;;;;23.74;49.89;100055.50;4424611;32;33913;-84
2022/08/07 00:35:34;;;;;;;;;;;;;;;23.46;50.61;100051.84;4422535;32;34213;-84
2022/08/07 00:38:03;;;;;;;;;;;;;;;23.35;50.97;100054.66;4423554;32;34082;-84
2022/08/07 00:40:33;;;;;;;;;;;;;;;23.36;50.97;100059.06;4409416;32;32658;-84
2022/08/07 00:43:12;;;;;;;;;;;;;;;23.74;49.90;100050.97;4418706;32;34092;-84
2022/08/07 00:46:00;;;;;;;;;;;;;;;23.90;49.49;100060.28;4413437;32;33069;-84
2022/08/07 00:48:34;;;;;;;;;;;;;;;23.70;50.32;100048.72;4414813;32;35144;-84
2022/08/07 00:51:01;;;;;;;;;;;;;;;23.73;49.96;100051.09;4431928;32;33409;-84
2022/08/07 00:53:30;;;;;;;;;;;;;;;23.63;50.35;100047.53;4423765;32;33916;-84
2022/08/07 00:56:17;;;;;;;;;;;;;;;23.56;50.54;100047.28;4433918;32;33069;-84
2022/08/07 00:58:45;;;;;;;;;;;;;;;23.57;50.62;100042.72;4423459;32;34413;-84
2022/08/07 01:01:16;;;;;;;;;;;;;;;23.73;49.98;100043.84;4424183;32;33318;-84
2022/08/07 01:03:44;;;;;;;;;;;;;;;23.31;51.36;100042.47;4410787;32;34681;-84
2022/08/07 01:06:27;;;;;;;;;;;;;;;23.51;50.60;100038.78;4422248;32;33214;-84
2022/08/07 01:08:55;;;;;;;;;;;;;;;23.59;50.31;100038.88;4407868;32;32830;-84
2022/08/07 01:11:28;;;;;;;;;;;;;;;23.61;50.26;100045.00;4417354;32;33002;-84
2022/08/07 01:14:15;;;;;;;;;;;;;;;23.71;50.23;100047.69;4418675;32;35027;-84
2022/08/07 01:16:43;;;;;;;;;;;;;;;23.81;49.72;100043.13;4417365;32;34270;-84
2022/08/07 01:19:15;;;;;;;;;;;;;;;23.48;50.67;100033.66;4401386;32;34223;-84
2022/08/07 01:21:48;;;;;;;;;;;;;;;23.14;51.66;100042.19;4427014;32;33175;-84
2022/08/07 01:24:22;;;;;;;;;;;;;;;23.22;51.43;100045.03;4424216;32;33769;-84
2022/08/07 01:26:50;;;;;;;;;;;;;;;23.43;50.82;100047.56;4422737;32;33414;-84
2022/08/07 01:29:24;;;;;;;;;;;;;;;23.77;49.98;100039.88;4423309;32;33897;-84
2022/08/07 01:31:58;;;;;;;;;;;;;;;23.49;50.77;100038.91;4428444;32;32994;-84
2022/08/07 01:34:29;;;;;;;;;;;;;;;23.48;50.76;100045.28;4416130;32;34703;-84
2022/08/07 01:36:58;;;;;;;;;;;;;;;23.65;50.58;100042.91;4435895;32;33724;-84
2022/08/07 01:39:27;;;;;;;;;;;;;;;23.66;50.28;100039.22;4421963;32;34104;-84
2022/08/07 01:42:13;;;;;;;;;;;;;;;23.42;50.93;100037.78;4421653;32;33579;-84
2022/08/07 01:45:03;;;;;;;;;;;;;;;23.65;50.28;100041.06;4418968;32;33987;-84
2022/08/07 01:47:32;;;;;;;;;;;;;;;23.41;50.85;100041.47;4420325;32;35052;-84
2022/08/07 01:50:21;;;;;;;;;;;;;;;23.89;49.63;100042.41;4435254;32;32946;-84
2022/08/07 01:52:56;;;;;;;;;;;;;;;23.84;49.83;100045.56;4416131;32;32465;-84
2022/08/07 01:55:27;;;;;;;;;;;;;;;23.84;49.81;100039.31;4421448;32;34172;-84
2022/08/07 01:57:56;;;;;;;;;;;;;;;23.77;49.98;100041.72;4420177;32;34088;-84
2022/08/07 02:00:44;;;;;;;;;;;;;;;23.99;49.62;100037.84;4419139;32;33722;-84
2022/08/07 02:03:18;;;;;;;;;;;;;;;23.70;50.30;100046.00;4423618;32;32181;-84
2022/08/07 02:05:57;;;;;;;;;;;;;;;23.77;49.95;100045.25;4410792;32;33874;-84
2022/08/07 02:08:28;;;;;;;;;;;;;;;23.68;50.18;100046.12;4424145;32;34323;-84
2022/08/07 02:10:58;;;;;;;;;;;;;;;23.49;50.64;100046.12;4411681;32;34122;-84
2022/08/07 02:13:29;;;;;;;;;;;;;;;23.72;50.31;100041.31;4411992;32;32323;-84
2022/08/07 02:16:17;;;;;;;;;;;;;;;23.54;50.70;100038.47;4414623;32;32614;-84
2022/08/07 02:18:47;;;;;;;;;;;;;;;23.74;50.08;100044.72;4411651;32;33195;-84
2022/08/07 02:21:17;;;;;;;;;;;;;;;23.70;50.33;100044.16;4425468;32;33861;-84
2022/08/07 02:23:45;;;;;;;;;;;;;;;23.22;51.37;100057.66;4422752;32;33195;-84
2022/08/07 02:26:13;;;;;;;;;;;;;;;23.32;51.50;100058.50;4433716;32;34519;-84
2022/08/07 02:29:04;;;;;;;;;;;;;;;23.27;51.30;100050.00;4414011;32;33135;-84
2022/08/07 02:31:41;;;;;;;;;;;;;;;23.34;51.16;100058.34;4431518;32;33996;-84
2022/08/07 02:34:09;;;;;;;;;;;;;;;23.38;51.13;100059.78;4410368;32;31699;-84
2022/08/07 02:36:44;;;;;;;;;;;;;;;23.50;50.88;100061.34;4415175;32;34306;-84
2022/08/07 02:39:13;;;;;;;;;;;;;;;23.68;50.36;100059.62;4419443;32;33885;-84
2022/08/07 02:42:02;;;;;;;;;;;;;;;23.70;50.11;100057.66;4415019;32;33581;-84
2022/08/07 02:44:44;;;;;;;;;;;;;;;23.66;50.28;100058.06;4421012;32;32661;-84
2022/08/07 02:47:15;;;;;;;;;;;;;;;23.25;51.25;100058.22;4421583;32;33074;-84
2022/08/07 02:50:03;;;;;;;;;;;;;;;23.52;50.62;100065.56;4420440;32;33327;-84
2022/08/07 02:52:44;;;;;;;;;;;;;;;23.59;50.44;100063.13;4425882;32;34232;-85
2022/08/07 02:55:20;;;;;;;;;;;;;;;23.71;50.03;100066.56;4419920;32;33840;-84
2022/08/07 02:57:54;;;;;;;;;;;;;;;23.71;49.99;100050.41;4424876;32;33888;-84
2022/08/07 03:00:23;;;;;;;;;;;;;;;23.68;50.18;100054.22;4423338;32;32459;-84
2022/08/07 03:02:52;;;;;;;;;;;;;;;23.46;50.74;100052.69;4423127;32;33878;-84
2022/08/07 03:05:23;;;;;;;;;;;;;;;23.52;50.45;100060.19;4429429;32;32964;-84
2022/08/07 03:07:52;;;;;;;;;;;;;;;23.57;50.25;100053.50;4412508;32;33692;-84
2022/08/07 03:10:36;;;;;;;;;;;;;;;23.58;50.42;100045.28;4414370;32;32944;-84
2022/08/07 03:13:16;;;;;;;;;;;;;;;23.32;51.06;100049.56;4435713;32;33829;-84
2022/08/07 03:15:48;;;;;;;;;;;;;;;23.62;50.59;100057.47;4431231;32;33093;-84
2022/08/07 03:18:25;;;;;;;;;;;;;;;23.61;50.40;100054.94;4424336;32;34596;-85
2022/08/07 03:21:05;;;;;;;;;;;;;;;23.46;50.68;100054.53;4409391;32;32790;-84
2022/08/07 03:23:37;;;;;;;;;;;;;;;23.49;50.72;100052.38;4413992;32;34160;-84
2022/08/07 03:26:27;;;;;;;;;;;;;;;23.39;50.85;100046.16;4418875;32;34807;-84
2022/08/07 03:28:55;;;;;;;;;;;;;;;23.40;50.76;100045.16;4423912;32;34487;-84
2022/08/07 03:31:25;;;;;;;;;;;;;;;23.34;51.01;100063.75;4422729;32;33979;-84
2022/08/07 03:34:12;;;;;;;;;;;;;;;23.40;50.98;100065.84;4433517;32;34006;-87
2022/08/07 03:36:49;;;;;;;;;;;;;;;23.51;50.67;100054.94;4430775;32;33929;-84
2022/08/07 03:39:17;;;;;;;;;;;;;;;23.46;50.87;100057.22;4419649;32;34203;-84
2022/08/07 03:42:05;;;;;;;;;;;;;;;23.52;50.60;100045.88;4419464;32;34646;-84
2022/08/07 03:44:33;;;;;;;;;;;;;;;23.53;50.67;100052.94;4421760;32;33046;-84
2022/08/07 03:47:01;;;;;;;;;;;;;;;23.65;50.21;100057.22;4419811;32;33214;-84
2022/08/07 03:49:38;;;;;;;;;;;;;;;23.62;50.26;100060.16;4424023;32;33970;-84
2022/08/07 03:52:08;;;;;;;;;;;;;;;23.49;50.62;100068.53;4422387;32;33002;-84
2022/08/07 03:54:49;;;;;;;;;;;;;;;23.61;50.35;100073.81;4430933;32;34148;-84
2022/08/07 03:57:22;;;;;;;;;;;;;;;23.68;49.92;100075.78;4425017;32;32983;-84
2022/08/07 04:00:10;;;;;;;;;;;;;;;23.45;50.54;100079.75;4420126;32;32889;-84
2022/08/07 04:02:43;;;;;;;;;;;;;;;23.54;50.47;100084.28;4415224;32;33428;-84
2022/08/07 04:05:21;;;;;;;;;;;;;;;23.63;50.14;100090.66;4408603;32;33012;-84
2022/08/07 04:07:56;;;;;;;;;;;;;;;23.40;51.35;100090.97;4429998;32;33203;-84
2022/08/07 04:10:26;;;;;;;;;;;;;;;23.61;50.52;100093.53;4415561;32;34624;-84
2022/08/07 04:12:56;;;;;;;;;;;;;;;23.54;50.62;100095.06;4424133;32;33987;-85
2022/08/07 04:15:26;;;;;;;;;;;;;;;23.32;51.08;100093.53;4412512;32;34364;-84
2022/08/07 04:17:55;;;;;;;;;;;;;;;23.46;50.65;100095.81;4424675;32;34184;-84
2022/08/07 04:20:43;;;;;;;;;;;;;;;23.46;50.77;100105.72;4413932;32;33733;-84
2022/08/07 04:23:23;;;;;;;;;;;;;;;23.32;51.22;100100.78;4425118;32;33869;-84
2022/08/07 04:26:10;;;;;;;;;;;;;;;23.34;51.57;100102.31;4426452;32;33919;-84
2022/08/07 04:28:43;;;;;;;;;;;;;;;23.18;52.11;100110.97;4411043;32;32100;-85
2022/08/07 04:31:11;;;;;;;;;;;;;;;23.19;52.09;100115.34;4410174;32;33092;-85
2022/08/07 04:33:47;;;;;;;;;;;;;;;23.24;51.78;100117.63;4416078;32;32982;-85
2022/08/07 04:36:24;;;;;;;;;;;;;;;23.15;51.83;100110.38;4421951;32;33940;-85
2022/08/07 04:38:54;;;;;;;;;;;;;;;23.40;51.47;100108.97;4417207;32;32629;-84
2022/08/07 04:41:23;;;;;;;;;;;;;;;23.29;51.59;100115.34;4409594;32;32515;-84
2022/08/07 04:43:52;;;;;;;;;;;;;;;23.38;51.31;100121.75;4401648;32;32844;-84
2022/08/07 04:46:43;;;;;;;;;;;;;;;23.40;51.14;100122.44;4398858;32;32762;-84
2022/08/07 04:49:36;;;;;;;;;;;;;;;23.21;51.77;100113.34;4410656;32;33225;-84
2022/08/07 04:52:24;;;;;;;;;;;;;;;23.23;51.68;100116.78;4408464;32;34966;-84
2022/08/07 04:54:59;;;;;;;;;;;;;;;23.31;51.46;100125.97;4421137;32;34319;-84
2022/08/07 04:57:35;;;;;;;;;;;;;;;23.05;52.25;100123.84;4408274;32;33332;-84
2022/08/07 05:00:41;;;;;;;;;;;;;;;23.27;51.50;100121.91;4410570;32;34122;-84
2022/08/07 05:03:32;;;;;;;;;;;;;;;23.34;52.43;100117.63;4408468;32;33917;-84
2022/08/07 05:06:29;;;;;;;;;;;;;;;23.40;51.63;100125.16;4408788;32;34282;-84
2022/08/07 05:09:31;;;;;;;;;;;;;;;23.34;51.78;100112.25;4410020;32;34109;-84
2022/08/07 05:12:15;;;;;;;;;;;;;;;23.50;51.32;100117.94;4397001;32;32332;-84
2022/08/07 05:14:57;;;;;;;;;;;;;;;23.67;50.88;100119.06;4395923;32;33307;-84
2022/08/07 05:17:31;;;;;;;;;;;;;;;23.40;52.42;100122.44;4396211;32;32951;-84
2022/08/07 05:20:23;;;;;;;;;;;;;;;23.13;52.15;100123.16;4410540;32;33847;-84
2022/08/07 05:22:54;;;;;;;;;;;;;;;23.65;51.15;100113.84;4407718;32;32633;-84
2022/08/07 05:25:22;;;;;;;;;;;;;;;23.44;51.46;100118.47;4394456;32;34553;-85
2022/08/07 05:28:05;;;;;;;;;;;;;;;23.54;51.29;100132.81;4401993;32;33421;-84
2022/08/07 05:30:48;;;;;;;;;;;;;;;23.66;51.03;100141.66;4409484;32;33682;-84
2022/08/07 05:33:20;;;;;;;;;;;;;;;23.82;50.56;100139.19;4407154;32;33708;-84
2022/08/07 05:35:49;;;;;;;;;;;;;;;23.66;51.05;100145.19;4408045;32;34229;-84
2022/08/07 05:38:19;;;;;;;;;;;;;;;23.81;50.98;100139.34;4408445;32;33483;-84
2022/08/07 05:41:09;;;;;;;;;;;;;;;24.05;50.67;100145.13;4424480;32;33048;-84
2022/08/07 05:43:44;;;;;;;;;;;;;;;24.08;50.66;100149.41;4432414;32;31728;-84
2022/08/07 05:46:35;;;;;;;;;;;;;;;24.18;49.89;100142.13;4415608;32;33965;-84
2022/08/07 05:49:05;;;;;;;;;;;;;;;24.28;49.87;100143.81;4431804;32;33683;-84
2022/08/07 05:51:42;;;;;;;;;;;;;;;24.21;49.82;100145.41;4433438;32;33768;-84
2022/08/07 05:54:19;;;;;;;;;;;;;;;24.22;49.92;100147.09;4432479;32;31946;-84
2022/08/07 05:57:08;;;;;;;;;;;;;;;24.17;50.21;100145.84;4423280;32;33544;-84
2022/08/07 05:59:38;;;;;;;;;;;;;;;24.13;49.99;100147.97;4429432;32;32934;-84
2022/08/07 06:02:26;;;;;;;;;;;;;;;24.36;50.02;100150.31;4434131;32;33710;-84
2022/08/07 06:05:02;;;;;;;;;;;;;;;24.38;49.83;100146.50;4432132;32;32349;-84
2022/08/07 06:07:33;;;;;;;;;;;;;;;24.57;49.44;100150.13;4429597;32;33342;-84
2022/08/07 06:10:22;;;;;;;;;;;;;;;24.70;48.93;100153.34;4431950;32;33986;-84
2022/08/07 06:12:50;;;;;;;;;;;;;;;24.84;49.02;100152.00;4430045;32;33341;-84
2022/08/07 06:15:20;;;;;;;;;;;;;;;24.92;48.66;100154.78;4418740;32;33088;-84
2022/08/07 06:17:48;;;;;;;;;;;;;;;25.04;48.53;100156.28;4429242;32;33921;-84
2022/08/07 06:20:26;;;;;;;;;;;;;;;25.04;48.31;100153.59;4425799;32;32884;-84
2022/08/07 06:23:00;;;;;;;;;;;;;;;25.16;48.15;100160.53;4417122;32;33931;-84
2022/08/07 06:25:50;;;;;;;;;;;;;;;25.22;48.12;100162.59;4432782;32;34009;-84
2022/08/07 06:28:24;;;;;;;;;;;;;;;25.00;48.11;100168.41;4429975;32;33444;-84
2022/08/07 06:30:56;;;;;;;;;;;;;;;25.10;48.22;100163.81;4431525;32;34688;-84
2022/08/07 06:33:31;;;;;;;;;;;;;;;25.15;47.94;100161.50;4423779;32;35324;-84
2022/08/07 06:36:08;;;;;;;;;;;;;;;25.03;47.68;100168.09;4429136;32;32255;-84
2022/08/07 06:38:42;;;;;;;;;;;;;;;25.09;48.56;100170.22;4433698;32;34190;-84
2022/08/07 06:41:27;;;;;;;;;;;;;;;25.38;46.99;100169.19;4419468;32;33308;-83
2022/08/07 06:44:15;;;;;;;;;;;;;;;25.25;47.34;100173.09;4436298;32;32869;-84
2022/08/07 06:46:44;;;;;;;;;;;;;;;25.14;47.50;100176.03;4425571;32;34043;-84
2022/08/07 06:49:32;;;;;;;;;;;;;;;25.07;47.89;100185.75;4417941;32;33759;-84
2022/08/07 06:52:18;;;;;;;;;;;;;;;25.00;48.63;100184.59;4429096;32;33779;-84
2022/08/07 06:55:05;;;;;;;;;;;;;;;24.98;49.72;100186.63;4433869;32;33172;-84
2022/08/07 06:57:57;;;;;;;;;;;;;;;24.83;51.96;100182.69;4422490;32;33575;-84
2022/08/07 07:00:33;;;;;;;;;;;;;;;24.85;50.84;100186.09;4423996;32;33816;-83
2022/08/07 07:03:02;;;;;;;;;;;;;;;24.79;52.55;100182.16;4434627;32;33946;-84
2022/08/07 07:05:44;;;;;;;;;;;;;;;24.77;53.81;100181.44;4436045;32;34850;-84
2022/08/07 07:08:39;;;;;;;;;;;;;;;24.90;52.38;100181.09;4422073;32;34132;-84
2022/08/07 07:11:15;;;;;;;;;;;;;;;25.02;51.66;100174.50;4435716;32;34585;-84
2022/08/07 07:14:05;;;;;;;;;;;;;;;24.84;53.08;100173.59;4422670;32;34546;-84
2022/08/07 07:19:30;;;;;;;;;;;;;;;25.19;51.27;100171.00;4431970;32;34964;-84
2022/08/07 07:22:20;;;;;;;;;;;;;;;25.02;50.52;100180.75;4454039;32;34618;-84
2022/08/07 07:25:04;;;;;;;;;;;;;;;24.86;51.73;100177.00;4441980;32;34259;-84
2022/08/07 07:28:03;;;;;;;;;;;;;;;25.03;51.87;100189.72;4442473;32;34833;-84
2022/08/07 07:31:12;;;;;;;;;;;;;;;25.15;53.08;100180.41;4442830;32;33817;-84
2022/08/07 07:33:44;;;;;;;;;;;;;;;25.26;51.92;100182.94;4447448;32;33293;-84
2022/08/07 07:36:24;;;;;;;;;;;;;;;25.46;50.10;100177.38;4441580;32;33661;-84
2022/08/07 07:39:00;;;;;;;;;;;;;;;25.35;49.50;100175.72;4440568;32;34886;-84
2022/08/07 07:41:31;;;;;;;;;;;;;;;25.20;50.19;100170.00;4448467;32;33048;-84
2022/08/07 07:44:21;;;;;;;;;;;;;;;25.39;51.80;100162.75;4422697;32;34942;-84
2022/08/07 07:46:55;;;;;;;;;;;;;;;25.45;49.05;100162.16;4426116;32;34964;-83
2022/08/07 07:49:43;;;;;;;;;;;;;;;25.90;48.78;100166.66;4414345;32;33124;-84
2022/08/07 07:52:31;;;;;;;;;;;;;;;26.25;47.13;100163.88;4431743;32;34071;-84
2022/08/07 07:54:59;;;;;;;;;;;;;;;26.23;47.73;100157.75;4436865;32;33853;-84
2022/08/07 07:57:34;;;;;;;;;;;;;;;26.53;44.81;100163.72;4419016;32;33529;-84
2022/08/07 08:00:20;;;;;;;;;;;;;;;26.48;44.45;100160.62;4429900;32;33028;-84
2022/08/07 08:03:04;;;;;;;;;;;;;;;26.64;43.16;100170.72;4429846;32;34075;-84
2022/08/07 08:05:37;;;;;;;;;;;;;;;26.62;42.71;100173.59;4407491;32;33062;-84
2022/08/07 08:08:31;;;;;;;;;;;;;;;26.58;42.79;100171.34;4422914;32;35039;-84
2022/08/07 08:11:06;;;;;;;;;;;;;;;26.55;42.87;100167.13;4416094;32;32980;-84
2022/08/07 08:13:55;;;;;;;;;;;;;;;26.48;43.61;100175.03;4416575;32;33352;-84
2022/08/07 08:19:13;;;;;;;;;;;;;;;26.88;42.01;100173.56;4434929;32;34069;-84
2022/08/07 08:28:15;;;;;;;;;;;;;;;26.93;42.44;100175.78;4430313;32;34927;-84
2022/08/07 08:31:08;;;;;;;;;;;;;;;27.30;41.87;100168.12;4425613;32;33722;-84
2022/08/07 08:33:44;;;;;;;;;;;;;;;27.57;41.37;100164.25;4425031;32;34394;-84
2022/08/07 08:36:25;;;;;;;;;;;;;;;27.41;41.68;100163.41;4437118;32;33268;-84
2022/08/07 08:39:01;;;;;;;;;;;;;;;28.03;41.98;100161.09;4423867;32;34031;-84
2022/08/07 08:41:46;;;;;;;;;;;;;;;27.75;41.45;100171.44;4443766;32;33178;-84
2022/08/07 08:44:35;;;;;;;;;;;;;;;27.92;41.10;100173.13;4412153;32;33282;-84
2022/08/07 08:47:23;;;;;;;;;;;;;;;28.19;40.56;100168.34;4425045;32;33996;-84
2022/08/07 08:49:58;;;;;;;;;;;;;;;28.26;39.26;100164.78;4420859;32;34044;-84
2022/08/07 08:52:35;;;;;;;;;;;;;;;28.63;39.33;100171.53;4422667;32;33942;-84
2022/08/07 08:55:21;;;;;;;;;;;;;;;29.06;37.63;100159.31;4426358;32;34088;-84
2022/08/07 08:58:27;;;;;;;;;;;;;;;28.79;38.08;100159.75;4430675;32;32573;-84
2022/08/07 09:01:17;;;;;;;;;;;;;;;29.10;36.93;100162.50;4435695;32;33054;-84
2022/08/07 09:03:58;;;;;;;;;;;;;;;29.19;35.80;100169.59;4422926;32;34677;-84
2022/08/07 09:06:39;;;;;;;;;;;;;;;29.17;36.76;100163.50;4419234;32;34891;-84
2022/08/07 09:09:23;;;;;;;;;;;;;;;28.96;36.80;100163.25;4424788;32;32914;-84
2022/08/07 09:15:10;;;;;;;;;;;;;;;29.59;36.27;100164.97;4422747;32;32794;-84
2022/08/07 09:18:05;;;;;;;;;;;;;;;29.32;35.75;100161.69;4423234;32;34579;-84
2022/08/07 09:20:43;;;;;;;;;;;;;;;29.21;37.89;100169.44;4436847;32;33014;-84
2022/08/07 09:23:32;;;;;;;;;;;;;;;29.12;37.83;100168.63;4437664;32;34263;-85
2022/08/07 09:26:26;;;;;;;;;;;;;;;29.45;36.88;100165.72;4425189;32;33953;-84
2022/08/07 09:29:03;;;;;;;;;;;;;;;29.88;35.24;100155.22;4435122;32;32862;-84
2022/08/07 09:31:59;;;;;;;;;;;;;;;29.62;35.12;100161.00;4436354;32;32903;-84
2022/08/07 09:34:48;;;;;;;;;;;;;;;29.77;35.77;100159.22;4435751;32;33866;-84
2022/08/07 09:37:33;;;;;;;;;;;;;;;29.75;35.06;100151.22;4434610;32;35547;-84
2022/08/07 09:40:42;;;;;;;;;;;;;;;29.97;36.03;100143.22;4425332;32;34688;-84
2022/08/07 09:43:34;;;;;;;;;;;;;;;29.99;37.83;100147.44;4423389;32;32030;-84
2022/08/07 09:46:29;;;;;;;;;;;;;;;29.73;35.59;100153.28;4412539;32;34578;-84
2022/08/07 09:49:17;;;;;;;;;;;;;;;30.14;35.31;100144.75;4422753;32;32738;-84
2022/08/07 09:52:23;;;;;;;;;;;;;;;30.35;35.20;100138.59;4428274;32;34062;-84
2022/08/07 09:58:16;;;;;;;;;;;;;;;30.13;36.84;100136.75;4435317;32;33780;-84
2022/08/07 10:01:06;;;;;;;;;;;;;;;30.05;36.45;100134.94;4422928;32;34424;-85
2022/08/07 10:03:51;;;;;;;;;;;;;;;29.42;36.59;100133.41;4437097;32;33655;-84
2022/08/07 10:06:42;;;;;;;;;;;;;;;29.61;36.35;100129.41;4418998;32;33280;-84
2022/08/07 10:09:48;;;;;;;;;;;;;;;30.09;36.15;100126.22;4425565;32;34812;-84
2022/08/07 10:12:36;;;;;;;;;;;;;;;30.04;36.11;100117.78;4434423;32;34755;-84
2022/08/07 10:15:09;;;;;;;;;;;;;;;30.27;35.81;100115.00;4436036;32;33447;-84
2022/08/07 10:21:08;;;;;;;;;;;;;;;30.26;35.28;100110.59;4422128;32;33316;-84
2022/08/07 10:24:17;;;;;;;;;;;;;;;30.38;36.40;100110.97;4436608;32;33857;-84
2022/08/07 10:26:52;;;;;;;;;;;;;;;30.44;37.31;100106.66;4438756;32;33773;-84
2022/08/07 10:29:26;;;;;;;;;;;;;;;30.34;35.48;100102.34;4438411;32;32747;-84
2022/08/07 10:32:00;;;;;;;;;;;;;;;30.14;35.47;100101.19;4439070;32;34132;-84
2022/08/07 10:34:45;;;;;;;;;;;;;;;30.55;34.38;100098.00;4429616;32;34183;-84
2022/08/07 10:37:15;;;;;;;;;;;;;;;30.90;34.90;100100.97;4438851;32;34686;-84
2022/08/07 10:39:48;;;;;;;;;;;;;;;30.54;36.89;100101.78;4438244;32;33391;-84
2022/08/07 10:42:52;;;;;;;;;;;;;;;30.46;37.26;100094.53;4438736;32;34583;-84
2022/08/07 10:45:30;;;;;;;;;;;;;;;30.76;34.62;100089.91;4409226;32;34737;-84
2022/08/07 10:48:24;;;;;;;;;;;;;;;30.56;34.72;100089.62;4420573;32;34958;-84
2022/08/07 10:54:19;;;;;;;;;;;;;;;31.04;34.68;100081.00;4435774;32;33753;-84
2022/08/07 10:57:06;;;;;;;;;;;;;;;31.05;34.25;100077.25;4432202;32;34918;-84
2022/08/07 10:59:52;;;;;;;;;;;;;;;30.50;35.55;100074.06;4426535;32;33202;-84
2022/08/07 11:02:23;;;;;;;;;;;;;;;30.57;34.67;100080.41;4428224;32;32832;-84
2022/08/07 11:05:21;;;;;;;;;;;;;;;30.64;34.11;100077.78;4422998;32;33767;-84
2022/08/07 11:08:11;;;;;;;;;;;;;;;30.99;33.39;100072.56;4436841;32;34305;-84
2022/08/07 11:10:58;;;;;;;;;;;;;;;31.34;33.91;100066.25;4437145;32;34010;-84
2022/08/07 11:13:46;;;;;;;;;;;;;;;30.90;33.32;100062.81;4428982;32;33102;-84
2022/08/07 11:16:47;;;;;;;;;;;;;;;31.48;33.96;100056.31;4422490;32;31090;-84
2022/08/07 11:19:34;;;;;;;;;;;;;;;31.90;33.66;100053.72;4424706;32;33916;-84
2022/08/07 11:22:10;;;;;;;;;;;;;;;32.24;32.24;100050.16;4436907;32;34814;-84
2022/08/07 11:25:06;;;;;;;;;;;;;;;32.14;32.23;100050.50;4424062;32;34087;-84
2022/08/07 11:27:43;;;;;;;;;;;;;;;32.40;32.66;100055.31;4431214;32;34251;-84
2022/08/07 11:30:51;;;;;;;;;;;;;;;32.01;31.29;100042.25;4436970;32;34148;-84
2022/08/07 11:33:38;;;;;;;;;;;;;;;32.10;30.22;100043.78;4410520;32;34435;-84
2022/08/07 11:36:45;;;;;;;;;;;;;;;31.97;31.27;100038.22;4435211;32;32749;-84
2022/08/07 11:43:23;;;;;;;;;;;;;;;32.16;31.35;100040.25;4327017;33;33976;-84
2022/08/07 11:46:28;;;;;;;;;;;;;;;32.10;32.95;100035.59;4356969;32;33922;-84
2022/08/07 11:49:03;;;;;;;;;;;;;;;32.78;30.22;100033.81;4359987;32;32228;-84
2022/08/07 11:51:59;;;;;;;;;;;;;;;32.68;30.19;100024.31;4357322;32;32853;-84
2022/08/07 11:54:37;;;;;;;;;;;;;;;32.62;30.25;100023.25;4360180;32;34333;-84
2022/08/07 11:57:17;;;;;;;;;;;;;;;32.13;31.29;100016.03;4348198;32;32863;-84
2022/08/07 12:00:01;;;;;;;;;;;;;;;32.25;31.05;100019.91;4359956;32;33141;-84
2022/08/07 12:06:08;;;;;;;;;;;;;;;33.23;28.70;100005.94;4359485;32;33790;-84
2022/08/07 12:09:00;;;;;;;;;;;;;;;32.84;34.62;100004.78;4346244;32;34315;-84
2022/08/07 12:11:33;;;;;;;;;;;;;;;33.04;30.15;99996.66;4347738;32;34274;-84
2022/08/07 12:14:23;;;;;;;;;;;;;;;33.71;28.70;99992.91;4348627;32;34037;-84
2022/08/07 12:16:57;;;;;;;;;;;;;;;32.97;31.94;100002.13;4360589;32;33665;-84
2022/08/07 12:19:34;;;;;;;;;;;;;;;33.02;30.65;99998.75;4358927;32;34173;-84
2022/08/07 12:25:52;;;;;;;;;;;;;;;33.25;28.95;99987.44;4433599;32;33877;-84
2022/08/07 12:28:46;;;;;;;;;;;;;;;33.62;28.86;99980.50;4435983;32;33433;-84
2022/08/07 12:31:38;;;;;;;;;;;;;;;33.67;28.58;99974.38;4411140;32;33077;-84
2022/08/07 12:34:27;;;;;;;;;;;;;;;33.35;31.60;99969.53;4423515;32;32807;-84
2022/08/07 12:37:02;;;;;;;;;;;;;;;33.67;32.06;99975.22;4423922;32;33236;-85
2022/08/07 12:39:46;;;;;;;;;;;;;;;33.56;31.32;99967.62;4425912;32;35136;-84
2022/08/07 12:42:23;;;;;;;;;;;;;;;33.87;30.31;99970.53;4424646;32;34087;-85
2022/08/07 12:44:59;;;;;;;;;;;;;;;34.00;29.69;99968.84;4420861;32;34004;-84
2022/08/07 12:47:43;;;;;;;;;;;;;;;33.72;29.42;99961.72;4430526;32;34093;-84
2022/08/07 12:50:32;;;;;;;;;;;;;;;33.95;30.52;99963.19;4439257;32;34673;-85
2022/08/07 12:53:29;;;;;;;;;;;;;;;34.28;29.01;99965.78;4439332;32;34259;-85
2022/08/07 12:56:21;;;;;;;;;;;;;;;34.07;28.80;99961.44;4441388;32;33024;-85
2022/08/07 12:59:00;;;;;;;;;;;;;;;34.33;28.34;99953.13;4452824;32;34581;-84
2022/08/07 13:01:41;;;;;;;;;;;;;;;33.97;31.52;99952.84;4439623;32;34719;-84
2022/08/07 13:04:19;;;;;;;;;;;;;;;34.18;29.02;99958.00;4438954;32;34186;-84
2022/08/07 13:07:05;;;;;;;;;;;;;;;34.23;31.12;99955.50;4452508;32;33073;-84
2022/08/07 13:09:42;;;;;;;;;;;;;;;34.50;28.31;99944.41;4439270;32;33925;-84
2022/08/07 13:12:34;;;;;;;;;;;;;;;34.61;27.76;99943.69;4451653;32;34747;-85
2022/08/07 13:15:14;;;;;;;;;;;;;;;34.65;28.25;99944.94;4453410;32;33691;-84
2022/08/07 13:18:06;;;;;;;;;;;;;;;34.59;28.50;99938.44;4440639;32;34093;-84
2022/08/07 13:20:53;;;;;;;;;;;;;;;35.09;27.60;99945.94;4440906;32;34962;-84
2022/08/07 13:23:43;;;;;;;;;;;;;;;34.97;28.48;99937.59;4439679;32;33887;-84
2022/08/07 13:26:34;;;;;;;;;;;;;;;35.10;28.01;99936.66;4451744;32;33948;-84
2022/08/07 13:29:12;;;;;;;;;;;;;;;34.88;27.44;99942.47;4439492;32;34364;-84
2022/08/07 13:31:43;;;;;;;;;;;;;;;34.97;29.35;99939.50;4451180;32;34259;-84
2022/08/07 13:34:29;;;;;;;;;;;;;;;35.13;26.37;99930.69;4440158;32;34143;-84
2022/08/07 13:37:09;;;;;;;;;;;;;;;34.87;27.45;99938.03;4451934;32;33513;-84
2022/08/07 13:39:50;;;;;;;;;;;;;;;34.41;27.48;99932.81;4438438;32;33373;-84
2022/08/07 13:42:38;;;;;;;;;;;;;;;34.12;28.62;99926.84;4439888;32;34832;-84
2022/08/07 13:45:10;;;;;;;;;;;;;;;34.00;28.30;99919.53;4435849;32;33322;-84
2022/08/07 13:48:02;;;;;;;;;;;;;;;33.62;29.15;99914.78;4427394;32;33158;-84
2022/08/07 13:50:43;;;;;;;;;;;;;;;33.45;30.88;99914.38;4440014;32;33025;-84
2022/08/07 13:53:32;;;;;;;;;;;;;;;33.30;29.06;99909.09;4437532;32;32944;-84
2022/08/07 13:56:25;;;;;;;;;;;;;;;33.44;30.89;99909.13;4433596;32;33341;-84
2022/08/07 13:59:14;;;;;;;;;;;;;;;33.67;31.43;99903.19;4440480;32;34151;-84
2022/08/07 14:01:56;;;;;;;;;;;;;;;33.96;28.79;99908.16;4440935;32;33696;-84
2022/08/07 14:04:44;;;;;;;;;;;;;;;34.29;28.64;99901.69;4439597;32;34039;-84
2022/08/07 14:07:30;;;;;;;;;;;;;;;34.38;27.65;99900.38;4441237;32;35088;-84
2022/08/07 14:10:40;;;;;;;;;;;;;;;33.54;29.62;99899.41;4443243;32;34937;-84
2022/08/07 14:13:17;;;;;;;;;;;;;;;33.89;28.34;99899.94;4427369;32;32529;-84
2022/08/07 14:15:53;;;;;;;;;;;;;;;33.71;28.88;99901.66;4451360;32;34211;-84
2022/08/07 14:21:15;;;;;;;;;;;;;;;33.72;28.90;99895.16;4440695;32;34503;-84
2022/08/07 14:24:07;;;;;;;;;;;;;;;33.61;28.65;99893.91;4436325;32;31947;-84